Tina-c — 2APY2 — position and weather

sailwx.info

Track history (hours):
 
Tides and Currents Weather Stations Pressure Air Temp Water Temp Dewpoint Dewpoint Depression Visibility Wind Speed Wind Dir Waves Ship Positions

Tina-c

Last reported at 2016-Jun-24 01:19 UTC. Time now 2016-Jun-25 03:37 UTC.
Position N 48°39' W 002°01'.

Length 99 m; draft 6 m.

Type: Cargo ship. MMSI: 235061987.

Date/timePositionNaut miles runAvg speedWind from/ knotsBaromVisibWave heightAir tempDewpointWater temp
2016-Jun-24 01:19N 48°39' W 002°01'0 0.0
2016-Jun-24 00:28N 48°39' W 002°01'0 0.0
2016-Jun-23 22:10N 48°39' W 002°01'78 2.6
2016-Jun-22 16:20N 49°48' W 002°56'911.3
2016-Jun-22 15:33N 49°57' W 002°56'10210.2
2016-Jun-22 05:33N 50°27' W 000°23'1212.1
2016-Jun-22 04:33N 50°30' W 000°05'1212.2
2016-Jun-22 03:33N 50°34' E 000°13'2711.2
2016-Jun-22 01:08N 50°46' E 000°52'6 9.5
2016-Jun-22 00:32N 50°49' E 000°59'8 8.6
2016-Jun-21 23:33N 50°55' E 001°09'9 9.3
2016-Jun-21 22:33N 51°01' E 001°21'1111.2
2016-Jun-21 21:33N 51°08' E 001°34'1313.3
2016-Jun-21 20:33N 51°20' E 001°43'1211.9
2016-Jun-21 19:33N 51°32' E 001°46'1111.1
2016-Jun-21 18:33N 51°43' E 001°44'1010.2
2016-Jun-21 17:33N 51°53' E 001°44'9 9.0
2016-Jun-21 16:33N 52°02' E 001°47'8 8.4
2016-Jun-21 15:33N 52°10' E 001°49'37 8.7
2016-Jun-21 11:18N 52°47' E 001°53'811.4
2016-Jun-21 10:33N 52°53' E 001°43'1212.0
2016-Jun-21 09:33N 53°01' E 001°29'2512.2
2016-Jun-21 07:31N 53°22' E 001°07'4912.3
2016-Jun-21 03:33N 54°02' E 000°20'1212.3
2016-Jun-21 02:33N 54°12' E 000°08'1211.5
2016-Jun-21 01:33N 54°22' W 000°03'1110.5
2016-Jun-21 00:33N 54°29' W 000°16'1010.1
2016-Jun-20 23:33N 54°35' W 000°30'1110.0
2016-Jun-20 22:30N 54°38' W 000°48'8 8.7
2016-Jun-20 21:33N 54°40' W 001°02'  
2016-Jun-17 14:26N 54°40' W 001°07'7 8.0
2016-Jun-17 13:33N 54°47' W 001°12'3 3.2
2016-Jun-17 12:33N 54°50' W 001°15'7 6.1
2016-Jun-17 11:28N 54°55' W 001°22'0 0.0
2016-Jun-17 10:31N 54°55' W 001°22'0 0.0
2016-Jun-17 09:19N 54°55' W 001°22'0 0.0
2016-Jun-17 08:31N 54°55' W 001°22'0 0.0
2016-Jun-17 07:31N 54°55' W 001°22'0 0.0
2016-Jun-17 06:22N 54°55' W 001°22'0 0.0
2016-Jun-17 05:25N 54°55' W 001°22'0 0.0
2016-Jun-17 04:25N 54°55' W 001°22'0 0.0
2016-Jun-17 03:25N 54°55' W 001°22'0 0.0
2016-Jun-17 02:28N 54°55' W 001°22'0 0.0
2016-Jun-17 01:28N 54°55' W 001°22'0 0.0
2016-Jun-17 00:28N 54°55' W 001°22'0 0.0
2016-Jun-16 23:31N 54°55' W 001°22'0 0.0
2016-Jun-16 22:31N 54°55' W 001°22'0 0.0
2016-Jun-16 21:28N 54°55' W 001°22'0 0.0
2016-Jun-16 20:31N 54°55' W 001°22'0 0.0
2016-Jun-16 19:31N 54°55' W 001°22'0 0.0
2016-Jun-16 18:31N 54°55' W 001°22'0 0.0
2016-Jun-16 17:31N 54°55' W 001°22'0 0.0
2016-Jun-16 16:22N 54°55' W 001°22'0 0.0
2016-Jun-16 15:22N 54°55' W 001°22'0 0.0
2016-Jun-16 14:22N 54°55' W 001°22'0 0.0
2016-Jun-16 13:25N 54°55' W 001°22'0 0.0
2016-Jun-16 12:07N 54°55' W 001°22'0 0.0
2016-Jun-16 11:28N 54°55' W 001°22'0 0.0
2016-Jun-16 10:28N 54°55' W 001°22'0 0.0
2016-Jun-16 09:28N 54°55' W 001°22'0 0.0
2016-Jun-16 08:31N 54°55' W 001°22'0 0.0
2016-Jun-16 07:31N 54°55' W 001°22'0 0.0
2016-Jun-16 06:31N 54°55' W 001°22'0 0.0
2016-Jun-16 05:33N 54°55' W 001°22'5 5.4
2016-Jun-16 04:33N 54°55' W 001°13'2 2.2
2016-Jun-16 03:33N 54°53' W 001°12'7 7.0
2016-Jun-16 02:33N 54°50' W 001°01'7 7.2
2016-Jun-16 01:33N 54°47' W 000°49'8 7.5
2016-Jun-16 00:31N 54°43' W 000°37'7 7.4
2016-Jun-15 23:33N 54°40' W 000°27'8 7.9
2016-Jun-15 22:33N 54°33' W 000°19'8 8.5
2016-Jun-15 21:33N 54°26' W 000°10'9 8.8
2016-Jun-15 20:33N 54°19' W 000°01'9 9.3
2016-Jun-15 19:33N 54°12' E 000°08'53 8.7
2016-Jun-15 13:28N 53°29' E 001°01'8 8.2
2016-Jun-15 12:32N 53°23' E 001°07'9 9.1
2016-Jun-15 11:33N 53°15' E 001°15'10 9.8
2016-Jun-15 10:33N 53°07' E 001°23'1010.1
2016-Jun-15 09:33N 52°58' E 001°33'1010.3
2016-Jun-15 08:33N 52°51' E 001°46'37 8.4
2016-Jun-15 04:11N 52°15' E 001°51'6 9.3
2016-Jun-15 03:33N 52°09' E 001°51'10 9.8
2016-Jun-15 02:33N 51°59' E 001°49'1110.9
2016-Jun-15 01:33N 51°48' E 001°49'1111.4
2016-Jun-15 00:33N 51°37' E 001°50'1211.9
2016-Jun-14 23:33N 51°25' E 001°45'1212.5
2016-Jun-14 22:33N 51°14' E 001°39'10 9.6
2016-Jun-14 21:33N 51°04' E 001°37'8412.0
2016-Jun-14 14:33N 49°58' E 000°16'1211.9
2016-Jun-14 13:33N 49°50' E 000°03'1110.9
2016-Jun-14 12:33N 49°39' W 000°04'10 9.9
2016-Jun-14 11:33N 49°30' W 000°08'1111.2
2016-Jun-14 10:33N 49°26' E 000°08'1312.8
2016-Jun-14 09:34N 49°28' E 000°28'  
Track history (hours):
 
Tides and Currents Weather Stations Pressure Air Temp Water Temp Dewpoint Dewpoint Depression Visibility Wind Speed Wind Dir Waves Ship Positions

Tina-c

Last reported at 2016-Jun-24 01:19 UTC. Time now 2016-Jun-25 03:37 UTC.
Position N 48°39' W 002°01'.

Length 99 m; draft 6 m.

Type: Cargo ship. MMSI: 235061987.

Date/timePositionNaut miles runAvg speedWind from/ knotsBaromVisibWave heightAir tempDewpointWater temp
2016-Jun-24 01:19N 48°39' W 002°01'0 0.0
2016-Jun-24 00:28N 48°39' W 002°01'0 0.0
2016-Jun-23 22:10N 48°39' W 002°01'78 2.6
2016-Jun-22 16:20N 49°48' W 002°56'911.3
2016-Jun-22 15:33N 49°57' W 002°56'10210.2
2016-Jun-22 05:33N 50°27' W 000°23'1212.1
2016-Jun-22 04:33N 50°30' W 000°05'1212.2
2016-Jun-22 03:33N 50°34' E 000°13'2711.2
2016-Jun-22 01:08N 50°46' E 000°52'6 9.5
2016-Jun-22 00:32N 50°49' E 000°59'8 8.6
2016-Jun-21 23:33N 50°55' E 001°09'9 9.3
2016-Jun-21 22:33N 51°01' E 001°21'1111.2
2016-Jun-21 21:33N 51°08' E 001°34'1313.3
2016-Jun-21 20:33N 51°20' E 001°43'1211.9
2016-Jun-21 19:33N 51°32' E 001°46'1111.1
2016-Jun-21 18:33N 51°43' E 001°44'1010.2
2016-Jun-21 17:33N 51°53' E 001°44'9 9.0
2016-Jun-21 16:33N 52°02' E 001°47'8 8.4
2016-Jun-21 15:33N 52°10' E 001°49'37 8.7
2016-Jun-21 11:18N 52°47' E 001°53'811.4
2016-Jun-21 10:33N 52°53' E 001°43'1212.0
2016-Jun-21 09:33N 53°01' E 001°29'2512.2
2016-Jun-21 07:31N 53°22' E 001°07'4912.3
2016-Jun-21 03:33N 54°02' E 000°20'1212.3
2016-Jun-21 02:33N 54°12' E 000°08'1211.5
2016-Jun-21 01:33N 54°22' W 000°03'1110.5
2016-Jun-21 00:33N 54°29' W 000°16'1010.1
2016-Jun-20 23:33N 54°35' W 000°30'1110.0
2016-Jun-20 22:30N 54°38' W 000°48'8 8.7
2016-Jun-20 21:33N 54°40' W 001°02'  
2016-Jun-17 14:26N 54°40' W 001°07'7 8.0
2016-Jun-17 13:33N 54°47' W 001°12'3 3.2
2016-Jun-17 12:33N 54°50' W 001°15'7 6.1
2016-Jun-17 11:28N 54°55' W 001°22'0 0.0
2016-Jun-17 10:31N 54°55' W 001°22'0 0.0
2016-Jun-17 09:19N 54°55' W 001°22'0 0.0
2016-Jun-17 08:31N 54°55' W 001°22'0 0.0
2016-Jun-17 07:31N 54°55' W 001°22'0 0.0
2016-Jun-17 06:22N 54°55' W 001°22'0 0.0
2016-Jun-17 05:25N 54°55' W 001°22'0 0.0
2016-Jun-17 04:25N 54°55' W 001°22'0 0.0
2016-Jun-17 03:25N 54°55' W 001°22'0 0.0
2016-Jun-17 02:28N 54°55' W 001°22'0 0.0
2016-Jun-17 01:28N 54°55' W 001°22'0 0.0
2016-Jun-17 00:28N 54°55' W 001°22'0 0.0
2016-Jun-16 23:31N 54°55' W 001°22'0 0.0
2016-Jun-16 22:31N 54°55' W 001°22'0 0.0
2016-Jun-16 21:28N 54°55' W 001°22'0 0.0
2016-Jun-16 20:31N 54°55' W 001°22'0 0.0
2016-Jun-16 19:31N 54°55' W 001°22'0 0.0
2016-Jun-16 18:31N 54°55' W 001°22'0 0.0
2016-Jun-16 17:31N 54°55' W 001°22'0 0.0
2016-Jun-16 16:22N 54°55' W 001°22'0 0.0
2016-Jun-16 15:22N 54°55' W 001°22'0 0.0
2016-Jun-16 14:22N 54°55' W 001°22'0 0.0
2016-Jun-16 13:25N 54°55' W 001°22'0 0.0
2016-Jun-16 12:07N 54°55' W 001°22'0 0.0
2016-Jun-16 11:28N 54°55' W 001°22'0 0.0
2016-Jun-16 10:28N 54°55' W 001°22'0 0.0
2016-Jun-16 09:28N 54°55' W 001°22'0 0.0
2016-Jun-16 08:31N 54°55' W 001°22'0 0.0
2016-Jun-16 07:31N 54°55' W 001°22'0 0.0
2016-Jun-16 06:31N 54°55' W 001°22'0 0.0
2016-Jun-16 05:33N 54°55' W 001°22'5 5.4
2016-Jun-16 04:33N 54°55' W 001°13'2 2.2
2016-Jun-16 03:33N 54°53' W 001°12'7 7.0
2016-Jun-16 02:33N 54°50' W 001°01'7 7.2
2016-Jun-16 01:33N 54°47' W 000°49'8 7.5
2016-Jun-16 00:31N 54°43' W 000°37'7 7.4
2016-Jun-15 23:33N 54°40' W 000°27'8 7.9
2016-Jun-15 22:33N 54°33' W 000°19'8 8.5
2016-Jun-15 21:33N 54°26' W 000°10'9 8.8
2016-Jun-15 20:33N 54°19' W 000°01'9 9.3
2016-Jun-15 19:33N 54°12' E 000°08'53 8.7
2016-Jun-15 13:28N 53°29' E 001°01'8 8.2
2016-Jun-15 12:32N 53°23' E 001°07'9 9.1
2016-Jun-15 11:33N 53°15' E 001°15'10 9.8
2016-Jun-15 10:33N 53°07' E 001°23'1010.1
2016-Jun-15 09:33N 52°58' E 001°33'1010.3
2016-Jun-15 08:33N 52°51' E 001°46'37 8.4
2016-Jun-15 04:11N 52°15' E 001°51'6 9.3
2016-Jun-15 03:33N 52°09' E 001°51'10 9.8
2016-Jun-15 02:33N 51°59' E 001°49'1110.9
2016-Jun-15 01:33N 51°48' E 001°49'1111.4
2016-Jun-15 00:33N 51°37' E 001°50'1211.9
2016-Jun-14 23:33N 51°25' E 001°45'1212.5
2016-Jun-14 22:33N 51°14' E 001°39'10 9.6
2016-Jun-14 21:33N 51°04' E 001°37'8412.0
2016-Jun-14 14:33N 49°58' E 000°16'1211.9
2016-Jun-14 13:33N 49°50' E 000°03'1110.9
2016-Jun-14 12:33N 49°39' W 000°04'10 9.9
2016-Jun-14 11:33N 49°30' W 000°08'1111.2
2016-Jun-14 10:33N 49°26' E 000°08'1312.8
2016-Jun-14 09:34N 49°28' E 000°28'  

Dump ship's entire track history